EHFD

F3-fb-1 Sea

F3-fb-1 Sea, The Netherlands
METAR EHFD 260355Z AUTO 09016KT 9999 NCD 16/08 Q1023 W///H///
Observed Flight Rules
May-26 @ 03:55 UTC (31 minutes ago) Visual Flight Rules
Wind Visibility Clouds
90° at 16 knots 10,000+ meters
  • Clear skies
Temperatures Readings
Current 16°C / 61°F
Dewpoint 8°C / 46°F
Humidity 59%
Altimeter 30.21" Hg
Pressure 1023 hPa
Elevation 50
METAR EHFD 260355Z AUTO 09016KT 9999 NCD 16/08 Q1023 W///H///
Observed Flight Rules
May-26 @ 03:55 UTC
(31 minutes ago)
VFR
Wind Visibility
90° at 16 knots 10,000+ meters
Clouds
  • Clear skies
Temperature Dewpoint
16°C / 61°F 8°C / 46°F
Humidity Altimeter Pressure
59% 30.21" Hg 1023 hPa